Austin Reinauer — WCX8055 — position and weather

sailwx.info

Track history (hours):
 
Tides and Currents Weather Stations Pressure Air Temp Water Temp Dewpoint Dewpoint Depression Visibility Wind Speed Wind Dir Waves Ship Positions

Austin Reinauer

Owner: REINAUER TRANSPORTATION CO, LP, STATEN ISLAND, NY. More information available from US FCC via Universal Licensing System and Coast Guard Vessel Documentation Center.

Last reported at 2015-Jul-05 20:33 UTC. Time now 2015-Jul-05 21:00 UTC.
Position N 40°40' W 074°02'.

Length 33 m; draft 6.7 m.

Type: Ship (hazmat cat B). MMSI: 366739920.

Date/timePositionNaut miles runAvg speedWind from/ knotsBaromVisibWave heightAir tempDewpointWater temp
2015-Jul-05 20:33N 40°40' W 074°02'0 0.0
2015-Jul-05 19:33N 40°40' W 074°02'1 0.9
2015-Jul-05 18:33N 40°41' W 074°01'10 9.4
2015-Jul-05 17:32N 40°48' W 073°53'12 9.3
2015-Jul-05 16:18N 40°54' W 073°40'911.4
2015-Jul-05 15:33N 40°58' W 073°30'1111.4
2015-Jul-05 14:33N 41°03' W 073°16'16 0.6
2015-Jul-04 09:33N 41°10' W 072°57'6 5.6
2015-Jul-04 08:33N 41°07' W 073°03'8 7.5
2015-Jul-04 07:33N 41°04' W 073°12'10 9.6
2015-Jul-04 06:33N 41°00' W 073°24'9 9.2
2015-Jul-04 05:33N 40°56' W 073°35'9 8.8
2015-Jul-04 04:33N 40°52' W 073°45'7 7.4
2015-Jul-04 03:33N 40°48' W 073°53'8 8.1
2015-Jul-04 02:33N 40°42' W 074°00'4 3.9
2015-Jul-04 01:33N 40°38' W 074°03'1 0.6
2015-Jul-04 00:33N 40°38' W 074°03'4 3.5
2015-Jul-03 23:33N 40°39' W 074°08'4 4.3
2015-Jul-03 22:33N 40°36' W 074°12'0 0.1
2015-Jul-03 21:33N 40°36' W 074°12'0 0.3
2015-Jul-03 20:33N 40°36' W 074°12'0 0.0
2015-Jul-03 19:33N 40°36' W 074°12'0 0.0
2015-Jul-03 18:33N 40°36' W 074°12'4 3.7
2015-Jul-03 17:34N 40°39' W 074°09'1 1.2
2015-Jul-03 16:33N 40°38' W 074°08'4 4.0
2015-Jul-03 15:33N 40°36' W 074°12'0 0.4
2015-Jul-03 14:33N 40°36' W 074°12'0 0.0
2015-Jul-03 13:33N 40°36' W 074°12'0 0.0
2015-Jul-03 12:33N 40°36' W 074°12'0 0.0
2015-Jul-03 11:33N 40°36' W 074°12'0 0.0
2015-Jul-03 10:33N 40°36' W 074°12'0 0.0
2015-Jul-03 09:33N 40°36' W 074°12'0 0.0
2015-Jul-03 08:33N 40°36' W 074°12'0 0.0
2015-Jul-03 07:33N 40°36' W 074°12'0 0.0
2015-Jul-03 06:33N 40°36' W 074°12'0 0.0
2015-Jul-03 05:33N 40°36' W 074°12'0 0.0
2015-Jul-03 04:33N 40°36' W 074°12'0 0.4
2015-Jul-03 03:33N 40°36' W 074°12'0 0.4
2015-Jul-03 02:33N 40°36' W 074°12'0 0.0
2015-Jul-03 01:33N 40°36' W 074°12'0 0.0
2015-Jul-03 00:31N 40°36' W 074°12'0 0.0
2015-Jul-02 23:33N 40°36' W 074°12'0 0.0
2015-Jul-02 22:33N 40°36' W 074°12'1 0.5
2015-Jul-02 21:33N 40°36' W 074°12'4 4.0
2015-Jul-02 20:33N 40°38' W 074°08'0 0.0
2015-Jul-02 19:33N 40°38' W 074°08'0 0.0
2015-Jul-02 18:33N 40°38' W 074°08'0 0.0
2015-Jul-02 17:33N 40°38' W 074°08'1 1.5
2015-Jul-02 16:33N 40°39' W 074°10'3 3.3
2015-Jul-02 15:33N 40°36' W 074°12'3 3.1
2015-Jul-02 14:33N 40°39' W 074°10'6 6.3
2015-Jul-02 13:33N 40°41' W 074°02'7 6.8
2015-Jul-02 12:33N 40°46' W 073°57'7 6.6
2015-Jul-02 11:29N 40°48' W 073°48'8 9.1
2015-Jul-02 10:33N 40°54' W 073°40'1010.0
2015-Jul-02 09:33N 40°59' W 073°28'10 9.9
2015-Jul-02 08:33N 41°01' W 073°16'1010.0
2015-Jul-02 07:33N 41°02' W 073°02'10 9.8
2015-Jul-02 06:33N 41°02' W 072°49'8 7.8
2015-Jul-02 05:31N 41°00' W 072°39'0 0.0
2015-Jul-02 04:31N 41°00' W 072°39'0 0.0
2015-Jul-02 03:31N 41°00' W 072°39'0 0.0
2015-Jul-02 02:31N 41°00' W 072°39'0 0.0
2015-Jul-02 01:31N 41°00' W 072°39'0 0.0
2015-Jul-02 00:28N 41°00' W 072°39'0 0.0
2015-Jul-01 23:31N 41°00' W 072°39'0 0.0
2015-Jul-01 22:25N 41°00' W 072°39'0 0.0
2015-Jul-01 21:31N 41°00' W 072°39'0 0.0
2015-Jul-01 20:28N 41°00' W 072°39'0 0.0
2015-Jul-01 19:28N 41°00' W 072°39'0 0.0
2015-Jul-01 18:28N 41°00' W 072°39'0 0.0
2015-Jul-01 17:28N 41°00' W 072°39'0 0.0
2015-Jul-01 16:25N 41°00' W 072°39'0 0.0
2015-Jul-01 15:22N 41°00' W 072°39'0 0.2
2015-Jul-01 14:31N 40°60' W 072°39'8 8.1
2015-Jul-01 13:33N 41°01' W 072°49'11 9.1
2015-Jul-01 12:23N 41°02' W 073°03'8 9.2
2015-Jul-01 11:33N 41°01' W 073°13'9 9.2
2015-Jul-01 10:32N 40°60' W 073°26'12 9.6
2015-Jul-01 09:16N 40°54' W 073°40'7 9.3
2015-Jul-01 08:33N 40°50' W 073°47'7 7.0
2015-Jul-01 07:33N 40°47' W 073°55'4 4.4
2015-Jul-01 06:33N 40°43' W 073°58'5 4.7
2015-Jul-01 05:31N 40°40' W 074°03'3 3.0
2015-Jul-01 04:32N 40°37' W 074°03'4 4.1
2015-Jul-01 03:32N 40°39' W 074°08'4 3.6
2015-Jul-01 02:33N 40°38' W 074°12'0 0.0
2015-Jul-01 01:33N 40°38' W 074°12'0 0.0
2015-Jul-01 00:30N 40°38' W 074°12'0 0.0
2015-Jun-30 23:24N 40°38' W 074°12'0 0.0
2015-Jun-30 22:33N 40°38' W 074°12'0 0.0
2015-Jun-30 21:27N 40°38' W 074°12'0 0.0
2015-Jun-30 20:32N 40°38' W 074°12'0 0.0
2015-Jun-30 19:32N 40°38' W 074°12'0 0.0
2015-Jun-30 18:32N 40°38' W 074°12'0 0.0
2015-Jun-30 17:26N 40°38' W 074°12'0 0.0
2015-Jun-30 16:23N 40°38' W 074°12'0 0.0
2015-Jun-30 15:23N 40°38' W 074°12'0 0.0
2015-Jun-30 14:32N 40°38' W 074°12'0 0.0
2015-Jun-30 13:32N 40°38' W 074°12'0 0.0
2015-Jun-30 12:26N 40°38' W 074°12'0 0.0
2015-Jun-30 11:32N 40°38' W 074°12'0 0.0
2015-Jun-30 10:26N 40°38' W 074°12'0 0.0
2015-Jun-30 09:32N 40°38' W 074°12'0 0.0
2015-Jun-30 08:29N 40°38' W 074°12'0 0.0
2015-Jun-30 07:32N 40°38' W 074°12'0 0.0
2015-Jun-30 06:29N 40°38' W 074°12'0 0.0
2015-Jun-30 05:32N 40°38' W 074°12'0 0.0
2015-Jun-30 04:32N 40°38' W 074°12'0 0.0
2015-Jun-30 03:29N 40°38' W 074°12'0 0.0
2015-Jun-30 02:32N 40°38' W 074°12'0 0.0
2015-Jun-30 01:32N 40°38' W 074°12'0 0.0
2015-Jun-30 00:26N 40°38' W 074°12'0 0.0
2015-Jun-29 23:29N 40°38' W 074°12'0 0.0
2015-Jun-29 22:32N 40°38' W 074°12'0 0.0
2015-Jun-29 21:32N 40°38' W 074°12'0 0.0
2015-Jun-29 20:29N 40°38' W 074°12'0 0.0
2015-Jun-29 19:29N 40°38' W 074°12'0 0.2
2015-Jun-29 18:33N 40°38' W 074°12'9 9.0
2015-Jun-29 17:34N 40°41' W 074°01'10 9.4
2015-Jun-29 16:32N 40°48' W 073°53'9 9.4
2015-Jun-29 15:33N 40°53' W 073°43'10 9.8
2015-Jun-29 14:34N 40°58' W 073°31'9 9.1
2015-Jun-29 13:33N 41°01' W 073°20'1010.0
2015-Jun-29 12:33N 41°02' W 073°07'1111.1
2015-Jun-29 11:33N 41°04' W 072°52'1111.4
2015-Jun-29 10:33N 41°07' W 072°38'1212.0
2015-Jun-29 09:33N 41°10' W 072°22'1211.7
2015-Jun-29 08:33N 41°14' W 072°08'1010.2
2015-Jun-29 07:33N 41°15' W 071°54'1010.4
2015-Jun-29 06:33N 41°17' W 071°41'10 9.9
2015-Jun-29 05:33N 41°19' W 071°28'10 9.8
2015-Jun-29 04:33N 41°28' W 071°22'1110.7
2015-Jun-29 03:33N 41°38' W 071°16'4 4.2
2015-Jun-29 02:33N 41°40' W 071°12'0 0.0
2015-Jun-29 01:30N 41°40' W 071°12'0 0.0
2015-Jun-29 00:15N 41°40' W 071°12'0 0.0
2015-Jun-28 23:27N 41°40' W 071°12'0 0.0
2015-Jun-28 22:33N 41°40' W 071°12'0 0.0
2015-Jun-28 21:30N 41°40' W 071°12'0 0.0
2015-Jun-28 20:27N 41°40' W 071°12'0 0.2
2015-Jun-28 19:27N 41°40' W 071°12'8 8.6
2015-Jun-28 18:33N 41°34' W 071°19'9 9.2
2015-Jun-28 17:33N 41°26' W 071°23'9 8.9
2015-Jun-28 16:33N 41°18' W 071°28'9 8.8
2015-Jun-28 15:33N 41°17' W 071°40'1010.2
2015-Jun-28 14:33N 41°15' W 071°53'10 9.9
2015-Jun-28 13:33N 41°15' W 072°06'10 9.9
2015-Jun-28 12:33N 41°12' W 072°19'7 6.6
2015-Jun-28 11:33N 41°09' W 072°27'6 6.3
2015-Jun-28 10:33N 41°09' W 072°35'7 7.1
2015-Jun-28 09:33N 41°10' W 072°44'9 6.8
2015-Jun-28 08:11N 41°15' W 072°55'3 4.0
2015-Jun-28 07:28N 41°18' W 072°55'0 0.0
2015-Jun-28 06:31N 41°18' W 072°55'0 0.0
2015-Jun-28 05:22N 41°18' W 072°55'0 0.0
2015-Jun-28 04:28N 41°18' W 072°55'0 0.0
2015-Jun-28 03:28N 41°18' W 072°55'0 0.0
2015-Jun-28 02:31N 41°18' W 072°55'0 0.0
2015-Jun-28 01:31N 41°18' W 072°55'0 0.0
2015-Jun-28 00:25N 41°18' W 072°55'0 0.0
2015-Jun-27 23:28N 41°18' W 072°55'0 0.0
2015-Jun-27 22:28N 41°18' W 072°55'0 0.0
2015-Jun-27 21:32N 41°18' W 072°55'0 0.0
2015-Jun-27 20:20N 41°18' W 072°55'0 0.0
2015-Jun-27 19:29N 41°18' W 072°55'0 0.0
2015-Jun-27 18:32N 41°18' W 072°55'3 3.4
2015-Jun-27 17:33N 41°15' W 072°55'8 7.5
2015-Jun-27 16:33N 41°09' W 073°01'10 9.5
2015-Jun-27 15:33N 41°04' W 073°12'10 9.7
2015-Jun-27 14:33N 41°01' W 073°24'9 9.4
2015-Jun-27 13:33N 40°56' W 073°35'9 8.9
2015-Jun-27 12:33N 40°52' W 073°45'7 7.1
2015-Jun-27 11:33N 40°48' W 073°53'8 7.8
2015-Jun-27 10:33N 40°42' W 073°60'6 6.1
2015-Jun-27 09:33N 40°39' W 074°07'0 0.0
2015-Jun-27 08:33N 40°39' W 074°07'0 0.0
2015-Jun-27 07:30N 40°39' W 074°07'0 0.0
2015-Jun-27 06:30N 40°39' W 074°07'0 0.0
2015-Jun-27 05:30N 40°39' W 074°07'0 0.0
2015-Jun-27 04:30N 40°39' W 074°07'0 0.0
2015-Jun-27 03:32N 40°39' W 074°07'0 0.0
2015-Jun-27 02:26N 40°39' W 074°07'0 0.0
2015-Jun-27 01:32N 40°39' W 074°07'0 0.0
2015-Jun-27 00:32N 40°39' W 074°07'0 0.0
2015-Jun-26 23:32N 40°39' W 074°07'0 0.0
2015-Jun-26 22:32N 40°39' W 074°07'0 0.0
2015-Jun-26 21:05N 40°39' W 074°07'0 0.0
2015-Jun-26 20:29N 40°39' W 074°07'0 0.0
2015-Jun-26 18:29N 40°39' W 074°07'0 0.0
2015-Jun-26 17:29N 40°39' W 074°07'0 0.0
2015-Jun-26 16:29N 40°39' W 074°07'0 0.0
2015-Jun-26 15:32N 40°39' W 074°07'0 0.0
2015-Jun-26 14:32N 40°39' W 074°07'4 3.9
2015-Jun-26 13:33N 40°40' W 074°02'0 0.3
2015-Jun-26 12:33N 40°40' W 074°02'0 0.0
2015-Jun-26 11:33N 40°40' W 074°02'0 0.0
2015-Jun-26 10:33N 40°40' W 074°02'0 0.2
2015-Jun-26 09:33N 40°40' W 074°02'0 0.0
2015-Jun-26 08:33N 40°40' W 074°02'0 0.0
2015-Jun-26 07:33N 40°40' W 074°02'0 0.1
2015-Jun-26 06:33N 40°40' W 074°02'0 0.1
2015-Jun-26 05:33N 40°40' W 074°02'0 0.1
2015-Jun-26 04:33N 40°40' W 074°02'0 0.0
2015-Jun-26 03:33N 40°40' W 074°02'5 4.8
2015-Jun-26 02:32N 40°38' W 074°08'0 0.0
2015-Jun-26 01:29N 40°38' W 074°08'0 0.0
2015-Jun-26 00:23N 40°38' W 074°08'0 0.0
2015-Jun-25 22:20N 40°38' W 074°08'0 0.0
2015-Jun-25 21:29N 40°38' W 074°08'  
Track history (hours):
 
Tides and Currents Weather Stations Pressure Air Temp Water Temp Dewpoint Dewpoint Depression Visibility Wind Speed Wind Dir Waves Ship Positions

Austin Reinauer

Owner: REINAUER TRANSPORTATION CO, LP, STATEN ISLAND, NY. More information available from US FCC via Universal Licensing System and Coast Guard Vessel Documentation Center.

Last reported at 2015-Jul-05 20:33 UTC. Time now 2015-Jul-05 21:00 UTC.
Position N 40°40' W 074°02'.

Length 33 m; draft 6.7 m.

Type: Ship (hazmat cat B). MMSI: 366739920.

Date/timePositionNaut miles runAvg speedWind from/ knotsBaromVisibWave heightAir tempDewpointWater temp
2015-Jul-05 20:33N 40°40' W 074°02'0 0.0
2015-Jul-05 19:33N 40°40' W 074°02'1 0.9
2015-Jul-05 18:33N 40°41' W 074°01'10 9.4
2015-Jul-05 17:32N 40°48' W 073°53'12 9.3
2015-Jul-05 16:18N 40°54' W 073°40'911.4
2015-Jul-05 15:33N 40°58' W 073°30'1111.4
2015-Jul-05 14:33N 41°03' W 073°16'16 0.6
2015-Jul-04 09:33N 41°10' W 072°57'6 5.6
2015-Jul-04 08:33N 41°07' W 073°03'8 7.5
2015-Jul-04 07:33N 41°04' W 073°12'10 9.6
2015-Jul-04 06:33N 41°00' W 073°24'9 9.2
2015-Jul-04 05:33N 40°56' W 073°35'9 8.8
2015-Jul-04 04:33N 40°52' W 073°45'7 7.4
2015-Jul-04 03:33N 40°48' W 073°53'8 8.1
2015-Jul-04 02:33N 40°42' W 074°00'4 3.9
2015-Jul-04 01:33N 40°38' W 074°03'1 0.6
2015-Jul-04 00:33N 40°38' W 074°03'4 3.5
2015-Jul-03 23:33N 40°39' W 074°08'4 4.3
2015-Jul-03 22:33N 40°36' W 074°12'0 0.1
2015-Jul-03 21:33N 40°36' W 074°12'0 0.3
2015-Jul-03 20:33N 40°36' W 074°12'0 0.0
2015-Jul-03 19:33N 40°36' W 074°12'0 0.0
2015-Jul-03 18:33N 40°36' W 074°12'4 3.7
2015-Jul-03 17:34N 40°39' W 074°09'1 1.2
2015-Jul-03 16:33N 40°38' W 074°08'4 4.0
2015-Jul-03 15:33N 40°36' W 074°12'0 0.4
2015-Jul-03 14:33N 40°36' W 074°12'0 0.0
2015-Jul-03 13:33N 40°36' W 074°12'0 0.0
2015-Jul-03 12:33N 40°36' W 074°12'0 0.0
2015-Jul-03 11:33N 40°36' W 074°12'0 0.0
2015-Jul-03 10:33N 40°36' W 074°12'0 0.0
2015-Jul-03 09:33N 40°36' W 074°12'0 0.0
2015-Jul-03 08:33N 40°36' W 074°12'0 0.0
2015-Jul-03 07:33N 40°36' W 074°12'0 0.0
2015-Jul-03 06:33N 40°36' W 074°12'0 0.0
2015-Jul-03 05:33N 40°36' W 074°12'0 0.0
2015-Jul-03 04:33N 40°36' W 074°12'0 0.4
2015-Jul-03 03:33N 40°36' W 074°12'0 0.4
2015-Jul-03 02:33N 40°36' W 074°12'0 0.0
2015-Jul-03 01:33N 40°36' W 074°12'0 0.0
2015-Jul-03 00:31N 40°36' W 074°12'0 0.0
2015-Jul-02 23:33N 40°36' W 074°12'0 0.0
2015-Jul-02 22:33N 40°36' W 074°12'1 0.5
2015-Jul-02 21:33N 40°36' W 074°12'4 4.0
2015-Jul-02 20:33N 40°38' W 074°08'0 0.0
2015-Jul-02 19:33N 40°38' W 074°08'0 0.0
2015-Jul-02 18:33N 40°38' W 074°08'0 0.0
2015-Jul-02 17:33N 40°38' W 074°08'1 1.5
2015-Jul-02 16:33N 40°39' W 074°10'3 3.3
2015-Jul-02 15:33N 40°36' W 074°12'3 3.1
2015-Jul-02 14:33N 40°39' W 074°10'6 6.3
2015-Jul-02 13:33N 40°41' W 074°02'7 6.8
2015-Jul-02 12:33N 40°46' W 073°57'7 6.6
2015-Jul-02 11:29N 40°48' W 073°48'8 9.1
2015-Jul-02 10:33N 40°54' W 073°40'1010.0
2015-Jul-02 09:33N 40°59' W 073°28'10 9.9
2015-Jul-02 08:33N 41°01' W 073°16'1010.0
2015-Jul-02 07:33N 41°02' W 073°02'10 9.8
2015-Jul-02 06:33N 41°02' W 072°49'8 7.8
2015-Jul-02 05:31N 41°00' W 072°39'0 0.0
2015-Jul-02 04:31N 41°00' W 072°39'0 0.0
2015-Jul-02 03:31N 41°00' W 072°39'0 0.0
2015-Jul-02 02:31N 41°00' W 072°39'0 0.0
2015-Jul-02 01:31N 41°00' W 072°39'0 0.0
2015-Jul-02 00:28N 41°00' W 072°39'0 0.0
2015-Jul-01 23:31N 41°00' W 072°39'0 0.0
2015-Jul-01 22:25N 41°00' W 072°39'0 0.0
2015-Jul-01 21:31N 41°00' W 072°39'0 0.0
2015-Jul-01 20:28N 41°00' W 072°39'0 0.0
2015-Jul-01 19:28N 41°00' W 072°39'0 0.0
2015-Jul-01 18:28N 41°00' W 072°39'0 0.0
2015-Jul-01 17:28N 41°00' W 072°39'0 0.0
2015-Jul-01 16:25N 41°00' W 072°39'0 0.0
2015-Jul-01 15:22N 41°00' W 072°39'0 0.2
2015-Jul-01 14:31N 40°60' W 072°39'8 8.1
2015-Jul-01 13:33N 41°01' W 072°49'11 9.1
2015-Jul-01 12:23N 41°02' W 073°03'8 9.2
2015-Jul-01 11:33N 41°01' W 073°13'9 9.2
2015-Jul-01 10:32N 40°60' W 073°26'12 9.6
2015-Jul-01 09:16N 40°54' W 073°40'7 9.3
2015-Jul-01 08:33N 40°50' W 073°47'7 7.0
2015-Jul-01 07:33N 40°47' W 073°55'4 4.4
2015-Jul-01 06:33N 40°43' W 073°58'5 4.7
2015-Jul-01 05:31N 40°40' W 074°03'3 3.0
2015-Jul-01 04:32N 40°37' W 074°03'4 4.1
2015-Jul-01 03:32N 40°39' W 074°08'4 3.6
2015-Jul-01 02:33N 40°38' W 074°12'0 0.0
2015-Jul-01 01:33N 40°38' W 074°12'0 0.0
2015-Jul-01 00:30N 40°38' W 074°12'0 0.0
2015-Jun-30 23:24N 40°38' W 074°12'0 0.0
2015-Jun-30 22:33N 40°38' W 074°12'0 0.0
2015-Jun-30 21:27N 40°38' W 074°12'0 0.0
2015-Jun-30 20:32N 40°38' W 074°12'0 0.0
2015-Jun-30 19:32N 40°38' W 074°12'0 0.0
2015-Jun-30 18:32N 40°38' W 074°12'0 0.0
2015-Jun-30 17:26N 40°38' W 074°12'0 0.0
2015-Jun-30 16:23N 40°38' W 074°12'0 0.0
2015-Jun-30 15:23N 40°38' W 074°12'0 0.0
2015-Jun-30 14:32N 40°38' W 074°12'0 0.0
2015-Jun-30 13:32N 40°38' W 074°12'0 0.0
2015-Jun-30 12:26N 40°38' W 074°12'0 0.0
2015-Jun-30 11:32N 40°38' W 074°12'0 0.0
2015-Jun-30 10:26N 40°38' W 074°12'0 0.0
2015-Jun-30 09:32N 40°38' W 074°12'0 0.0
2015-Jun-30 08:29N 40°38' W 074°12'0 0.0
2015-Jun-30 07:32N 40°38' W 074°12'0 0.0
2015-Jun-30 06:29N 40°38' W 074°12'0 0.0
2015-Jun-30 05:32N 40°38' W 074°12'0 0.0
2015-Jun-30 04:32N 40°38' W 074°12'0 0.0
2015-Jun-30 03:29N 40°38' W 074°12'0 0.0
2015-Jun-30 02:32N 40°38' W 074°12'0 0.0
2015-Jun-30 01:32N 40°38' W 074°12'0 0.0
2015-Jun-30 00:26N 40°38' W 074°12'0 0.0
2015-Jun-29 23:29N 40°38' W 074°12'0 0.0
2015-Jun-29 22:32N 40°38' W 074°12'0 0.0
2015-Jun-29 21:32N 40°38' W 074°12'0 0.0
2015-Jun-29 20:29N 40°38' W 074°12'0 0.0
2015-Jun-29 19:29N 40°38' W 074°12'0 0.2
2015-Jun-29 18:33N 40°38' W 074°12'9 9.0
2015-Jun-29 17:34N 40°41' W 074°01'10 9.4
2015-Jun-29 16:32N 40°48' W 073°53'9 9.4
2015-Jun-29 15:33N 40°53' W 073°43'10 9.8
2015-Jun-29 14:34N 40°58' W 073°31'9 9.1
2015-Jun-29 13:33N 41°01' W 073°20'1010.0
2015-Jun-29 12:33N 41°02' W 073°07'1111.1
2015-Jun-29 11:33N 41°04' W 072°52'1111.4
2015-Jun-29 10:33N 41°07' W 072°38'1212.0
2015-Jun-29 09:33N 41°10' W 072°22'1211.7
2015-Jun-29 08:33N 41°14' W 072°08'1010.2
2015-Jun-29 07:33N 41°15' W 071°54'1010.4
2015-Jun-29 06:33N 41°17' W 071°41'10 9.9
2015-Jun-29 05:33N 41°19' W 071°28'10 9.8
2015-Jun-29 04:33N 41°28' W 071°22'1110.7
2015-Jun-29 03:33N 41°38' W 071°16'4 4.2
2015-Jun-29 02:33N 41°40' W 071°12'0 0.0
2015-Jun-29 01:30N 41°40' W 071°12'0 0.0
2015-Jun-29 00:15N 41°40' W 071°12'0 0.0
2015-Jun-28 23:27N 41°40' W 071°12'0 0.0
2015-Jun-28 22:33N 41°40' W 071°12'0 0.0
2015-Jun-28 21:30N 41°40' W 071°12'0 0.0
2015-Jun-28 20:27N 41°40' W 071°12'0 0.2
2015-Jun-28 19:27N 41°40' W 071°12'8 8.6
2015-Jun-28 18:33N 41°34' W 071°19'9 9.2
2015-Jun-28 17:33N 41°26' W 071°23'9 8.9
2015-Jun-28 16:33N 41°18' W 071°28'9 8.8
2015-Jun-28 15:33N 41°17' W 071°40'1010.2
2015-Jun-28 14:33N 41°15' W 071°53'10 9.9
2015-Jun-28 13:33N 41°15' W 072°06'10 9.9
2015-Jun-28 12:33N 41°12' W 072°19'7 6.6
2015-Jun-28 11:33N 41°09' W 072°27'6 6.3
2015-Jun-28 10:33N 41°09' W 072°35'7 7.1
2015-Jun-28 09:33N 41°10' W 072°44'9 6.8
2015-Jun-28 08:11N 41°15' W 072°55'3 4.0
2015-Jun-28 07:28N 41°18' W 072°55'0 0.0
2015-Jun-28 06:31N 41°18' W 072°55'0 0.0
2015-Jun-28 05:22N 41°18' W 072°55'0 0.0
2015-Jun-28 04:28N 41°18' W 072°55'0 0.0
2015-Jun-28 03:28N 41°18' W 072°55'0 0.0
2015-Jun-28 02:31N 41°18' W 072°55'0 0.0
2015-Jun-28 01:31N 41°18' W 072°55'0 0.0
2015-Jun-28 00:25N 41°18' W 072°55'0 0.0
2015-Jun-27 23:28N 41°18' W 072°55'0 0.0
2015-Jun-27 22:28N 41°18' W 072°55'0 0.0
2015-Jun-27 21:32N 41°18' W 072°55'0 0.0
2015-Jun-27 20:20N 41°18' W 072°55'0 0.0
2015-Jun-27 19:29N 41°18' W 072°55'0 0.0
2015-Jun-27 18:32N 41°18' W 072°55'3 3.4
2015-Jun-27 17:33N 41°15' W 072°55'8 7.5
2015-Jun-27 16:33N 41°09' W 073°01'10 9.5
2015-Jun-27 15:33N 41°04' W 073°12'10 9.7
2015-Jun-27 14:33N 41°01' W 073°24'9 9.4
2015-Jun-27 13:33N 40°56' W 073°35'9 8.9
2015-Jun-27 12:33N 40°52' W 073°45'7 7.1
2015-Jun-27 11:33N 40°48' W 073°53'8 7.8
2015-Jun-27 10:33N 40°42' W 073°60'6 6.1
2015-Jun-27 09:33N 40°39' W 074°07'0 0.0
2015-Jun-27 08:33N 40°39' W 074°07'0 0.0
2015-Jun-27 07:30N 40°39' W 074°07'0 0.0
2015-Jun-27 06:30N 40°39' W 074°07'0 0.0
2015-Jun-27 05:30N 40°39' W 074°07'0 0.0
2015-Jun-27 04:30N 40°39' W 074°07'0 0.0
2015-Jun-27 03:32N 40°39' W 074°07'0 0.0
2015-Jun-27 02:26N 40°39' W 074°07'0 0.0
2015-Jun-27 01:32N 40°39' W 074°07'0 0.0
2015-Jun-27 00:32N 40°39' W 074°07'0 0.0
2015-Jun-26 23:32N 40°39' W 074°07'0 0.0
2015-Jun-26 22:32N 40°39' W 074°07'0 0.0
2015-Jun-26 21:05N 40°39' W 074°07'0 0.0
2015-Jun-26 20:29N 40°39' W 074°07'0 0.0
2015-Jun-26 18:29N 40°39' W 074°07'0 0.0
2015-Jun-26 17:29N 40°39' W 074°07'0 0.0
2015-Jun-26 16:29N 40°39' W 074°07'0 0.0
2015-Jun-26 15:32N 40°39' W 074°07'0 0.0
2015-Jun-26 14:32N 40°39' W 074°07'4 3.9
2015-Jun-26 13:33N 40°40' W 074°02'0 0.3
2015-Jun-26 12:33N 40°40' W 074°02'0 0.0
2015-Jun-26 11:33N 40°40' W 074°02'0 0.0
2015-Jun-26 10:33N 40°40' W 074°02'0 0.2
2015-Jun-26 09:33N 40°40' W 074°02'0 0.0
2015-Jun-26 08:33N 40°40' W 074°02'0 0.0
2015-Jun-26 07:33N 40°40' W 074°02'0 0.1
2015-Jun-26 06:33N 40°40' W 074°02'0 0.1
2015-Jun-26 05:33N 40°40' W 074°02'0 0.1
2015-Jun-26 04:33N 40°40' W 074°02'0 0.0
2015-Jun-26 03:33N 40°40' W 074°02'5 4.8
2015-Jun-26 02:32N 40°38' W 074°08'0 0.0
2015-Jun-26 01:29N 40°38' W 074°08'0 0.0
2015-Jun-26 00:23N 40°38' W 074°08'0 0.0
2015-Jun-25 22:20N 40°38' W 074°08'0 0.0
2015-Jun-25 21:29N 40°38' W 074°08'  

Dump ship's entire track history